createdAt,value
2023-02-04T00:00:50.857Z,15.83
2023-02-04T00:03:33.491Z,15.79
2023-02-04T00:06:15.557Z,15.77
2023-02-04T00:09:08.241Z,15.72
2023-02-04T00:11:56.836Z,15.64
2023-02-04T00:14:40.938Z,15.61
2023-02-04T00:17:21.959Z,15.58
2023-02-04T00:20:04.677Z,15.55
2023-02-04T00:22:49.599Z,15.55
2023-02-04T00:25:28.463Z,15.50
2023-02-04T00:28:13.549Z,15.53
2023-02-04T00:30:54.722Z,15.42
2023-02-04T00:33:43.929Z,15.48
2023-02-04T00:36:26.060Z,15.50
2023-02-04T00:39:05.875Z,15.53
2023-02-04T00:42:00.013Z,15.55
2023-02-04T00:44:49.201Z,15.58
2023-02-04T00:47:36.422Z,15.52
2023-02-04T00:50:19.317Z,15.57
2023-02-04T00:53:10.604Z,15.55
2023-02-04T00:56:16.208Z,15.55
2023-02-04T00:59:07.398Z,15.54
2023-02-04T01:02:10.557Z,15.52
2023-02-04T01:05:13.776Z,15.51
2023-02-04T01:08:40.624Z,15.50
2023-02-04T01:11:53.950Z,15.49
2023-02-04T01:15:02.153Z,15.43
2023-02-04T01:18:00.836Z,15.43
2023-02-04T01:20:43.728Z,15.38
2023-02-04T01:24:04.880Z,15.32
2023-02-04T01:27:08.498Z,15.30
2023-02-04T01:30:56.462Z,15.28
2023-02-04T01:36:53.750Z,15.18
2023-02-04T01:42:55.960Z,15.08
2023-02-04T01:45:43.672Z,15.08
2023-02-04T01:48:38.956Z,15.01
2023-02-04T01:51:57.737Z,14.96
2023-02-04T01:58:13.508Z,14.85
2023-02-04T02:01:02.014Z,14.78
2023-02-04T02:04:08.059Z,14.73
2023-02-04T02:06:59.843Z,14.74
2023-02-04T02:10:02.560Z,14.77
2023-02-04T02:12:42.181Z,14.68
2023-02-04T02:15:39.586Z,14.66
2023-02-04T02:19:08.070Z,14.53
2023-02-04T02:22:11.759Z,14.60
2023-02-04T02:25:03.749Z,14.68
2023-02-04T02:27:46.563Z,14.69
2023-02-04T02:30:35.195Z,14.70
2023-02-04T02:33:31.356Z,14.72
2023-02-04T02:36:30.187Z,14.74
2023-02-04T02:39:25.393Z,14.74
2023-02-04T02:42:30.983Z,14.59
2023-02-04T02:45:57.233Z,14.67
2023-02-04T02:48:41.189Z,14.72
2023-02-04T02:51:39.115Z,14.74
2023-02-04T02:54:48.342Z,14.77
2023-02-04T02:57:46.273Z,14.74
2023-02-04T03:01:11.196Z,14.74
2023-02-04T03:04:03.680Z,14.76
2023-02-04T03:06:45.256Z,14.73
2023-02-04T03:09:26.783Z,14.71
2023-02-04T03:15:58.555Z,14.55
2023-02-04T03:18:42.690Z,14.45
2023-02-04T03:21:41.195Z,14.52
2023-02-04T03:24:35.861Z,14.44
2023-02-04T03:27:34.198Z,14.48
2023-02-04T03:30:32.546Z,14.31
2023-02-04T03:36:29.824Z,14.28
2023-02-04T03:39:09.150Z,14.21
2023-02-04T03:42:06.217Z,14.16
2023-02-04T03:45:44.617Z,14.07
2023-02-04T03:48:42.611Z,13.95
2023-02-04T03:51:47.527Z,13.77
2023-02-04T03:54:33.981Z,13.78
2023-02-04T03:57:27.629Z,13.51
2023-02-04T04:00:22.887Z,13.58
2023-02-04T04:03:06.691Z,13.41
2023-02-04T04:05:57.191Z,13.47
2023-02-04T04:08:44.088Z,13.33
2023-02-04T04:11:22.251Z,13.30
2023-02-04T04:17:08.087Z,13.27
2023-02-04T04:20:02.039Z,13.14
2023-02-04T04:22:46.614Z,13.14
2023-02-04T04:25:41.523Z,13.21
2023-02-04T04:28:45.853Z,13.13
2023-02-04T04:31:37.974Z,13.15
2023-02-04T04:34:39.642Z,13.16
2023-02-04T04:37:30.828Z,13.16
2023-02-04T04:40:16.538Z,13.17
2023-02-04T04:42:58.714Z,13.14
2023-02-04T04:45:57.532Z,13.21
2023-02-04T04:51:58.714Z,13.25
2023-02-04T04:54:53.738Z,13.29
2023-02-04T04:57:43.279Z,13.23
2023-02-04T05:00:30.177Z,13.20
2023-02-04T05:06:09.523Z,12.98
2023-02-04T05:08:45.552Z,12.95
2023-02-04T05:11:30.269Z,12.93
2023-02-04T05:14:13.779Z,12.78
2023-02-04T05:16:57.188Z,12.80
2023-02-04T05:19:46.363Z,12.75
2023-02-04T05:22:58.421Z,12.74
2023-02-04T05:26:03.324Z,12.67
2023-02-04T05:29:25.353Z,12.64
2023-02-04T05:32:23.191Z,12.61
2023-02-04T05:34:56.874Z,12.58
2023-02-04T05:37:47.154Z,12.55
2023-02-04T05:40:39.203Z,12.51
2023-02-04T05:43:41.863Z,12.53
2023-02-04T05:49:54.746Z,12.44
2023-02-04T05:52:49.321Z,12.50
2023-02-04T05:56:12.537Z,12.46
2023-02-04T05:58:57.430Z,12.44
2023-02-04T06:01:47.213Z,12.42
2023-02-04T06:04:32.394Z,12.36
2023-02-04T06:10:18.512Z,12.36
2023-02-04T06:13:27.628Z,12.42
2023-02-04T06:16:07.657Z,12.43
2023-02-04T06:18:44.168Z,12.42
2023-02-04T06:21:35.134Z,12.39
2023-02-04T06:24:08.993Z,12.31
2023-02-04T06:30:07.058Z,12.24
2023-02-04T06:32:42.683Z,12.23
2023-02-04T06:35:25.139Z,12.13
2023-02-04T06:38:06.604Z,12.18
2023-02-04T06:41:20.468Z,12.21
2023-02-04T06:43:56.618Z,12.22
2023-02-04T06:46:37.801Z,12.23
2023-02-04T06:49:32.739Z,12.26
2023-02-04T06:52:10.399Z,12.31
2023-02-04T06:54:51.790Z,12.29
2023-02-04T06:57:41.687Z,12.30
2023-02-04T07:00:38.088Z,12.30
2023-02-04T07:06:03.793Z,12.51
2023-02-04T07:08:38.746Z,12.60
2023-02-04T07:11:12.281Z,12.77
2023-02-04T07:13:46.877Z,12.84
2023-02-04T07:16:17.182Z,12.92
2023-02-04T07:18:54.525Z,12.96
2023-02-04T07:21:28.903Z,13.07
2023-02-04T07:23:56.396Z,12.98
2023-02-04T07:26:26.829Z,13.11
2023-02-04T07:28:57.056Z,13.19
2023-02-04T07:31:27.572Z,13.27
2023-02-04T07:33:54.924Z,13.29
2023-02-04T07:36:35.723Z,13.52
2023-02-04T07:39:24.023Z,13.62
2023-02-04T07:42:29.403Z,13.80
2023-02-04T07:48:27.281Z,13.93
2023-02-04T07:51:13.979Z,13.97
2023-02-04T07:53:50.366Z,13.95
2023-02-04T07:56:34.209Z,14.06
2023-02-04T07:59:29.410Z,14.12
2023-02-04T08:02:00.029Z,14.17
2023-02-04T08:04:48.626Z,14.21
2023-02-04T08:07:26.175Z,14.24
2023-02-04T08:10:19.437Z,14.22
2023-02-04T08:12:57.086Z,14.25
2023-02-04T08:15:27.897Z,14.30
2023-02-04T08:17:55.630Z,14.42
2023-02-04T08:20:29.622Z,14.43
2023-02-04T08:23:05.418Z,14.46
2023-02-04T08:28:15.334Z,14.69
2023-02-04T08:30:48.764Z,14.77
2023-02-04T08:33:27.471Z,14.85
2023-02-04T08:35:54.732Z,14.96
2023-02-04T08:38:29.319Z,14.98
2023-02-04T08:40:57.111Z,15.09
2023-02-04T08:43:24.644Z,15.22
2023-02-04T08:45:52.765Z,15.50
2023-02-04T08:48:22.168Z,15.84
2023-02-04T08:51:05.475Z,16.22
2023-02-04T08:53:58.085Z,16.67
2023-02-04T08:56:45.035Z,17.07
2023-02-04T08:59:19.808Z,17.50
2023-02-04T09:02:03.753Z,17.84
2023-02-04T09:04:39.616Z,18.17
2023-02-04T09:07:20.818Z,18.45
2023-02-04T09:09:48.388Z,18.55
2023-02-04T09:12:23.795Z,18.79
2023-02-04T09:14:53.652Z,19.00
2023-02-04T09:17:26.761Z,19.11
2023-02-04T09:22:46.490Z,19.39
2023-02-04T09:25:17.944Z,19.54
2023-02-04T09:27:48.614Z,19.59
2023-02-04T09:30:25.111Z,19.82
2023-02-04T09:33:06.551Z,20.10
2023-02-04T09:35:43.320Z,20.23
2023-02-04T09:38:14.318Z,20.46
2023-02-04T09:41:03.643Z,20.10
2023-02-04T09:43:49.413Z,20.60
2023-02-04T09:46:27.440Z,20.53
2023-02-04T09:49:10.704Z,20.67
2023-02-04T09:51:44.490Z,20.81
2023-02-04T09:54:25.582Z,20.96
2023-02-04T09:56:59.859Z,21.27
2023-02-04T09:59:31.495Z,21.68
2023-02-04T10:02:06.176Z,22.11
2023-02-04T10:04:45.389Z,22.31
2023-02-04T10:07:16.181Z,22.16
2023-02-04T10:09:43.742Z,22.74
2023-02-04T10:12:16.018Z,22.93
2023-02-04T10:15:22.700Z,23.23
2023-02-04T10:18:04.498Z,23.19
2023-02-04T10:20:32.859Z,23.04
2023-02-04T10:23:06.845Z,23.38
2023-02-04T10:25:36.595Z,23.40
2023-02-04T10:28:15.458Z,23.70
2023-02-04T10:30:46.637Z,23.83
2023-02-04T10:33:16.896Z,23.82
2023-02-04T10:35:56.130Z,23.62
2023-02-04T10:38:28.709Z,24.01
2023-02-04T10:41:17.928Z,24.23
2023-02-04T10:43:48.138Z,24.34
2023-02-04T10:46:20.510Z,24.60
2023-02-04T10:48:52.648Z,24.99
2023-02-04T10:51:30.450Z,25.33
2023-02-04T10:54:23.173Z,25.65
2023-02-04T10:56:54.612Z,25.74
2023-02-04T10:59:35.959Z,25.89
2023-02-04T11:05:21.361Z,26.52
2023-02-04T11:07:55.944Z,26.47
2023-02-04T11:10:31.823Z,26.72
2023-02-04T11:13:14.383Z,26.53
2023-02-04T11:15:51.008Z,26.68
2023-02-04T11:18:22.762Z,26.78
2023-02-04T11:20:58.085Z,26.69
2023-02-04T11:23:48.985Z,27.24
2023-02-04T11:26:45.034Z,27.26
2023-02-04T11:29:39.505Z,27.74
2023-02-04T11:32:32.712Z,28.20
2023-02-04T11:35:33.582Z,28.80
2023-02-04T11:38:19.618Z,29.35
2023-02-04T11:40:59.816Z,29.77
2023-02-04T11:43:42.697Z,30.28
2023-02-04T11:46:20.525Z,30.40
2023-02-04T11:48:57.104Z,31.00
2023-02-04T11:51:32.343Z,31.32
2023-02-04T11:57:00.666Z,32.45
2023-02-04T11:59:30.120Z,32.72
2023-02-04T12:02:35.557Z,33.02
2023-02-04T12:05:36.343Z,33.11
2023-02-04T12:08:28.386Z,33.40
2023-02-04T12:11:31.874Z,33.82
2023-02-04T12:14:13.914Z,34.17
2023-02-04T12:17:02.039Z,34.49
2023-02-04T12:22:21.128Z,35.03
2023-02-04T12:24:48.774Z,35.11
2023-02-04T12:27:17.853Z,35.60
2023-02-04T12:30:13.583Z,35.83
2023-02-04T12:36:02.410Z,36.12
2023-02-04T12:38:44.491Z,36.52
2023-02-04T12:41:22.986Z,36.65
2023-02-04T12:44:01.506Z,36.64
2023-02-04T12:46:48.797Z,36.66
2023-02-04T12:49:47.466Z,36.08
2023-02-04T12:52:27.666Z,36.04
2023-02-04T12:57:55.966Z,36.15
2023-02-04T13:00:32.624Z,34.97
2023-02-04T13:03:26.516Z,35.72
2023-02-04T13:06:05.313Z,36.00
2023-02-04T13:08:40.805Z,36.48
2023-02-04T13:11:18.344Z,36.86
2023-02-04T13:14:25.969Z,37.19
2023-02-04T13:19:51.503Z,37.18
2023-02-04T13:22:24.634Z,37.43
2023-02-04T13:24:56.242Z,37.25
2023-02-04T13:27:40.159Z,37.74
2023-02-04T13:30:25.451Z,37.56
2023-02-04T13:36:07.825Z,36.62
2023-02-04T13:41:39.623Z,36.75
2023-02-04T13:44:26.171Z,37.03
2023-02-04T13:47:28.211Z,37.07
2023-02-04T13:52:47.387Z,37.84
2023-02-04T13:55:38.642Z,37.68
2023-02-04T13:58:24.639Z,36.94
2023-02-04T14:04:15.527Z,37.19
2023-02-04T14:06:52.644Z,36.76
2023-02-04T14:09:20.187Z,35.73
2023-02-04T14:11:53.480Z,36.01
2023-02-04T14:14:39.802Z,36.33
2023-02-04T14:17:19.207Z,36.39
2023-02-04T14:19:52.053Z,36.56
2023-02-04T14:22:28.578Z,35.68
2023-02-04T14:24:59.817Z,36.11
2023-02-04T14:27:33.111Z,36.31
2023-02-04T14:30:09.231Z,35.08
2023-02-04T14:32:36.642Z,34.86
2023-02-04T14:35:45.156Z,34.20
2023-02-04T14:38:22.877Z,34.49
2023-02-04T14:41:05.712Z,34.56
2023-02-04T14:43:55.096Z,34.72
2023-02-04T14:46:32.523Z,34.66
2023-02-04T14:49:13.701Z,34.18
2023-02-04T14:51:53.193Z,34.50
2023-02-04T14:54:40.563Z,34.44
2023-02-04T14:57:23.475Z,34.40
2023-02-04T14:59:57.003Z,34.12
2023-02-04T15:02:46.134Z,33.31
2023-02-04T15:05:16.014Z,33.24
2023-02-04T15:07:53.872Z,33.05
2023-02-04T15:10:35.067Z,32.99
2023-02-04T15:13:08.891Z,32.86
2023-02-04T15:15:51.484Z,32.75
2023-02-04T15:18:29.277Z,32.24
2023-02-04T15:20:59.064Z,31.92
2023-02-04T15:27:12.039Z,31.36
2023-02-04T15:29:45.025Z,31.17
2023-02-04T15:32:15.959Z,31.10
2023-02-04T15:35:01.435Z,30.90
2023-02-04T15:40:20.836Z,30.43
2023-02-04T15:43:01.992Z,30.34
2023-02-04T15:45:33.746Z,30.28
2023-02-04T15:48:14.630Z,29.90
2023-02-04T15:50:57.666Z,29.94
2023-02-04T15:53:28.283Z,29.86
2023-02-04T15:55:58.207Z,29.65
2023-02-04T16:01:33.502Z,29.44
2023-02-04T16:04:10.004Z,29.12
2023-02-04T16:07:14.845Z,28.85
2023-02-04T16:09:47.138Z,27.91
2023-02-04T16:12:51.571Z,27.22
2023-02-04T16:18:16.470Z,27.04
2023-02-04T16:21:10.069Z,27.12
2023-02-04T16:24:16.829Z,26.96
2023-02-04T16:26:58.313Z,26.97
2023-02-04T16:32:39.475Z,26.60
2023-02-04T16:35:15.836Z,26.48
2023-02-04T16:38:06.471Z,26.43
2023-02-04T16:40:41.113Z,26.27
2023-02-04T16:43:30.139Z,25.79
2023-02-04T16:49:26.983Z,25.93
2023-02-04T16:52:11.105Z,25.68
2023-02-04T16:54:47.384Z,25.54
2023-02-04T16:57:52.578Z,25.31
2023-02-04T17:00:42.013Z,25.39
2023-02-04T17:03:42.105Z,25.11
2023-02-04T17:06:19.922Z,24.91
2023-02-04T17:08:52.589Z,24.81
2023-02-04T17:11:44.398Z,24.86
2023-02-04T17:14:19.476Z,24.63
2023-02-04T17:16:58.081Z,24.80
2023-02-04T17:19:47.274Z,24.67
2023-02-04T17:22:25.327Z,24.58
2023-02-04T17:25:20.263Z,24.38
2023-02-04T17:30:53.880Z,24.30
2023-02-04T17:33:37.680Z,24.05
2023-02-04T17:36:11.208Z,24.07
2023-02-04T17:38:57.362Z,23.91
2023-02-04T17:41:50.073Z,23.91
2023-02-04T17:44:51.175Z,23.83
2023-02-04T17:51:04.676Z,23.40
2023-02-04T17:53:50.490Z,23.40
2023-02-04T17:56:34.138Z,23.38
2023-02-04T18:02:36.346Z,23.00
2023-02-04T18:05:36.296Z,22.63
2023-02-04T18:11:57.426Z,22.94
2023-02-04T18:18:06.995Z,22.65
2023-02-04T18:20:57.328Z,22.54
2023-02-04T18:24:44.054Z,22.49
2023-02-04T18:28:01.912Z,22.20
2023-02-04T18:31:28.926Z,22.08
2023-02-04T18:34:32.540Z,22.08
2023-02-04T18:37:40.139Z,22.08
2023-02-04T18:40:29.493Z,22.00
2023-02-04T18:43:43.128Z,21.95
2023-02-04T18:46:47.320Z,21.79
2023-02-04T18:49:45.582Z,21.91
2023-02-04T18:52:32.920Z,21.74
2023-02-04T18:55:30.818Z,21.70
2023-02-04T18:58:43.442Z,21.84
2023-02-04T19:01:48.572Z,21.86
2023-02-04T19:07:28.276Z,21.77
2023-02-04T19:10:32.004Z,21.56
2023-02-04T19:13:46.380Z,21.59
2023-02-04T19:19:46.419Z,21.35
2023-02-04T19:22:53.893Z,21.36
2023-02-04T19:26:24.172Z,21.22
2023-02-04T19:29:03.815Z,21.29
2023-02-04T19:31:41.474Z,21.21
2023-02-04T19:34:40.890Z,21.25
2023-02-04T19:37:27.930Z,21.20
2023-02-04T19:40:37.601Z,21.18
2023-02-04T19:43:30.309Z,21.16
2023-02-04T19:46:41.030Z,21.08
2023-02-04T19:49:46.007Z,20.98
2023-02-04T19:52:44.409Z,20.93
2023-02-04T19:55:48.140Z,20.85
2023-02-04T20:01:22.129Z,20.79
2023-02-04T20:04:13.814Z,20.75
2023-02-04T20:06:55.574Z,20.72
2023-02-04T20:09:37.984Z,20.62
2023-02-04T20:12:25.203Z,20.53
2023-02-04T20:15:00.344Z,20.35
2023-02-04T20:17:48.167Z,20.35
2023-02-04T20:23:39.212Z,20.23
2023-02-04T20:26:42.203Z,20.30
2023-02-04T20:29:30.760Z,20.07
2023-02-04T20:32:00.436Z,20.16
2023-02-04T20:34:42.394Z,20.16
2023-02-04T20:37:46.029Z,20.08
2023-02-04T20:40:34.211Z,20.09
2023-02-04T20:43:15.565Z,20.09
2023-02-04T20:46:05.025Z,20.15
2023-02-04T20:48:47.315Z,20.17
2023-02-04T20:51:38.613Z,20.01
2023-02-04T20:54:12.385Z,20.00
2023-02-04T20:56:53.465Z,19.92
2023-02-04T20:59:44.174Z,19.88
2023-02-04T21:02:21.037Z,19.86
2023-02-04T21:05:17.464Z,19.75
2023-02-04T21:07:59.097Z,19.77
2023-02-04T21:10:31.982Z,19.75
2023-02-04T21:13:19.371Z,19.72
2023-02-04T21:15:53.854Z,19.74
2023-02-04T21:18:37.053Z,19.70
2023-02-04T21:21:23.370Z,19.65
2023-02-04T21:23:59.185Z,19.58
2023-02-04T21:27:07.902Z,19.49
2023-02-04T21:29:38.151Z,19.42
2023-02-04T21:32:14.107Z,19.43
2023-02-04T21:34:54.428Z,19.36
2023-02-04T21:37:24.169Z,19.27
2023-02-04T21:39:56.777Z,19.30
2023-02-04T21:42:36.001Z,19.25
2023-02-04T21:45:17.085Z,19.23
2023-02-04T21:47:49.629Z,19.19
2023-02-04T21:50:21.251Z,19.18
2023-02-04T21:52:54.951Z,19.13
2023-02-04T21:55:23.287Z,19.20
2023-02-04T21:57:59.703Z,19.14
2023-02-04T22:00:35.723Z,19.15
2023-02-04T22:03:24.453Z,19.12
2023-02-04T22:05:58.134Z,19.09
2023-02-04T22:08:30.893Z,19.11
2023-02-04T22:11:00.802Z,19.06
2023-02-04T22:13:52.661Z,19.02
2023-02-04T22:16:25.986Z,18.97
2023-02-04T22:18:53.279Z,18.93
2023-02-04T22:21:22.092Z,18.91
2023-02-04T22:23:54.911Z,18.89
2023-02-04T22:26:24.785Z,18.76
2023-02-04T22:29:00.896Z,18.72
2023-02-04T22:31:33.561Z,18.72
2023-02-04T22:34:17.538Z,18.73
2023-02-04T22:36:52.090Z,18.56
2023-02-04T22:39:28.006Z,18.45
2023-02-04T22:42:05.494Z,18.35
2023-02-04T22:44:38.893Z,18.43
2023-02-04T22:47:16.645Z,18.38
2023-02-04T22:49:48.656Z,18.32
2023-02-04T22:52:19.016Z,18.31
2023-02-04T22:54:48.675Z,18.24
2023-02-04T22:57:21.572Z,18.16
2023-02-04T22:59:56.500Z,18.11
2023-02-04T23:02:30.206Z,18.04
2023-02-04T23:05:00.088Z,18.10
2023-02-04T23:07:27.819Z,18.03
2023-02-04T23:09:58.023Z,17.99
2023-02-04T23:12:33.143Z,17.91
2023-02-04T23:15:16.217Z,17.95
2023-02-04T23:17:50.058Z,17.86
2023-02-04T23:20:29.085Z,17.89
2023-02-04T23:23:05.080Z,17.83
2023-02-04T23:25:51.465Z,17.82
2023-02-04T23:28:22.799Z,17.84
2023-02-04T23:30:57.061Z,17.83
2023-02-04T23:33:38.334Z,17.78
2023-02-04T23:36:10.232Z,17.73
2023-02-04T23:38:41.640Z,17.74
2023-02-04T23:41:20.379Z,17.74
2023-02-04T23:43:57.936Z,17.74
2023-02-04T23:46:36.362Z,17.71
2023-02-04T23:49:07.732Z,17.67
2023-02-04T23:51:43.390Z,17.66
2023-02-04T23:54:12.857Z,17.63
2023-02-04T23:56:46.019Z,17.58
2023-02-04T23:59:23.409Z,17.65
